KLOL/LOL METAR and TAF weather

Enter ICAO airport designator
Station Type Date Time Source
KLOL METAR 2019/04/25 07:53 UTC NOAA

KLOL 250753Z AUTO 00000KT 10SM CLR 13/04 A3006 RMK AO2 SLP149 T01280044 402780039


Station Type Date Time Source
KLOL Decoded METAR 2019/04/25 07:53 UTC NOAA

LOVELOCK DERBY FIELD, NV, United States (KLOL) 40-04N 118-34W 1189M
Apr 25, 2019 - 03:53 AM EDT / 2019.04.25 0753 UTC
Wind: Calm:0
Visibility: 10 mile(s):0
Sky conditions: clear
Temperature: 55.0 F (12.8 C)
Dew Point: 39.9 F (4.4 C)
Relative Humidity: 56%
Pressure (altimeter): 30.06 in. Hg (1017 hPa)
ob: KLOL 250753Z AUTO 00000KT 10SM CLR 13/04 A3006 RMK AO2 SLP149 T01280044 402780039
cycle: 8

Station Type Date Time Source
KLOL TAF 2010/01/05 05:22 UTC NOAA

TAF KLOL 050522Z 0506/0606 00000KT 1/4SM FZFG VV001
FM052000 VRB03KT 3SM BR OVC002
AMD NOT SKED

Example: see airport list